createdAt,value
2017-07-12T00:00:03.103Z,50.67
2017-07-12T00:05:02.827Z,50.48
2017-07-12T00:10:03.212Z,50.48
2017-07-12T00:15:02.620Z,50.2
2017-07-12T00:20:02.892Z,50.2
2017-07-12T00:25:03.507Z,49.81
2017-07-12T00:30:02.798Z,49.71
2017-07-12T00:35:03.080Z,49.62
2017-07-12T00:40:02.778Z,49.62
2017-07-12T00:45:03.236Z,49.52
2017-07-12T00:50:03.524Z,49.43
2017-07-12T00:55:02.926Z,49.45
2017-07-12T01:00:03.493Z,49.45
2017-07-12T01:05:02.928Z,49.36
2017-07-12T01:10:03.431Z,49.26
2017-07-12T01:15:02.929Z,49.14
2017-07-12T01:20:03.464Z,49.05
2017-07-12T01:25:02.941Z,49.05
2017-07-12T01:30:03.409Z,49.05
2017-07-12T01:35:02.703Z,49.05
2017-07-12T01:40:03.184Z,49.05
2017-07-12T01:45:02.615Z,49.05
2017-07-12T01:50:03.003Z,49.05
2017-07-12T01:55:03.484Z,48.95
2017-07-12T02:00:02.704Z,49.05
2017-07-12T02:05:03.143Z,49.24
2017-07-12T02:10:02.668Z,49.24
2017-07-12T02:15:03.181Z,49.31
2017-07-12T02:20:02.618Z,49.4
2017-07-12T02:25:03.212Z,49.4
2017-07-12T02:30:03.511Z,49.5
2017-07-12T02:35:02.834Z,49.5
2017-07-12T02:40:03.292Z,49.5
2017-07-12T02:45:02.807Z,49.5
2017-07-12T02:50:03.125Z,49.6
2017-07-12T02:55:02.592Z,49.79
2017-07-12T03:00:03.130Z,49.79
2017-07-12T03:05:03.498Z,49.76
2017-07-12T03:10:03.006Z,49.86
2017-07-12T03:15:03.461Z,49.76
2017-07-12T03:20:02.947Z,49.69
2017-07-12T03:25:03.251Z,49.6
2017-07-12T03:30:03.534Z,49.6
2017-07-12T03:35:02.816Z,49.6
2017-07-12T03:40:03.198Z,49.6
2017-07-12T03:45:03.546Z,49.6
2017-07-12T03:50:02.847Z,49.5
2017-07-12T03:55:03.189Z,49.5
2017-07-12T04:00:02.689Z,49.6
2017-07-12T04:05:03.166Z,49.6
2017-07-12T04:10:03.548Z,49.6
2017-07-12T04:15:02.830Z,49.5
2017-07-12T04:20:03.183Z,49.5
2017-07-12T04:25:03.523Z,49.5
2017-07-12T04:30:03.487Z,49.5
2017-07-12T04:35:02.840Z,49.5
2017-07-12T04:40:03.359Z,49.5
2017-07-12T04:45:02.675Z,49.5
2017-07-12T04:50:03.446Z,49.4
2017-07-12T04:55:02.912Z,49.5
2017-07-12T05:00:03.274Z,49.5
2017-07-12T05:05:03.581Z,49.5
2017-07-12T05:10:03.139Z,49.5
2017-07-12T05:15:03.552Z,49.6
2017-07-12T05:20:02.888Z,49.5
2017-07-12T05:25:03.361Z,49.6
2017-07-12T05:30:02.822Z,49.6
2017-07-12T05:35:03.268Z,49.6
2017-07-12T05:40:02.704Z,49.6
2017-07-12T05:45:03.118Z,49.6
2017-07-12T05:50:02.704Z,49.6
2017-07-12T05:55:03.136Z,49.98
2017-07-12T06:00:02.615Z,50.07
2017-07-12T06:05:02.941Z,50.17
2017-07-12T06:10:03.471Z,50.07
2017-07-12T06:15:02.948Z,50.17
2017-07-12T06:20:03.393Z,50.07
2017-07-12T06:25:02.733Z,49.98
2017-07-12T06:30:03.108Z,49.88
2017-07-12T06:35:03.522Z,49.81
2017-07-12T06:40:02.995Z,49.62
2017-07-12T06:45:03.343Z,49.71
2017-07-12T06:50:02.668Z,49.79
2017-07-12T06:55:03.170Z,49.98
2017-07-12T07:00:03.486Z,49.98
2017-07-12T07:05:02.990Z,49.88
2017-07-12T07:10:03.537Z,50
2017-07-12T07:15:02.821Z,50
2017-07-12T07:20:03.266Z,49.81
2017-07-12T07:25:03.671Z,49.62
2017-07-12T07:30:03.184Z,49.26
2017-07-12T07:35:02.636Z,48.78
2017-07-12T07:40:03.169Z,48.23
2017-07-12T07:45:03.507Z,48.04
2017-07-12T07:50:03.013Z,48.23
2017-07-12T07:55:03.434Z,48.4
2017-07-12T08:00:02.734Z,48.4
2017-07-12T08:05:03.064Z,48.49
2017-07-12T08:10:03.573Z,48.59
2017-07-12T08:15:03.046Z,48.49
2017-07-12T08:20:03.470Z,48.4
2017-07-12T08:25:02.937Z,48.4
2017-07-12T08:30:03.240Z,48.23
2017-07-12T08:35:03.554Z,48.33
2017-07-12T08:40:02.908Z,48.59
2017-07-12T08:45:03.401Z,48.49
2017-07-12T08:50:02.827Z,48.69
2017-07-12T08:55:03.238Z,48.69
2017-07-12T09:00:02.671Z,48.59
2017-07-12T09:05:03.158Z,48.78
2017-07-12T09:10:02.609Z,48.88
2017-07-12T09:15:03.087Z,48.97
2017-07-12T09:20:02.635Z,48.97
2017-07-12T09:35:03.157Z,48.04
2017-07-12T09:40:02.871Z,47.58
2017-07-12T09:45:03.212Z,47.77
2017-07-12T09:50:03.475Z,48.23
2017-07-12T09:55:02.688Z,47.85
2017-07-12T10:00:02.975Z,47.58
2017-07-12T10:05:03.422Z,47.39
2017-07-12T10:10:02.765Z,47.51
2017-07-12T10:15:03.161Z,47.8
2017-07-12T10:20:02.681Z,47.61
2017-07-12T10:25:03.161Z,47.71
2017-07-12T10:30:03.518Z,47.71
2017-07-12T10:35:02.942Z,47.8
2017-07-12T10:40:03.465Z,47.89
2017-07-12T10:45:02.883Z,48.64
2017-07-12T10:50:03.481Z,48.8
2017-07-12T10:55:02.913Z,49.1
2017-07-12T11:00:03.240Z,48.97
2017-07-12T11:05:02.802Z,49.16
2017-07-12T11:10:03.360Z,49.84
2017-07-12T11:15:02.795Z,49.71
2017-07-12T11:20:03.291Z,49.71
2017-07-12T11:25:02.589Z,49.52
2017-07-12T11:30:02.857Z,49.52
2017-07-12T11:35:03.337Z,49.43
2017-07-12T11:40:02.840Z,49.33
2017-07-12T11:45:03.312Z,49.33
2017-07-12T11:50:02.861Z,49.24
2017-07-12T11:55:03.193Z,49.24
2017-07-12T12:00:02.716Z,49.14
2017-07-12T12:05:03.254Z,49.24
2017-07-12T12:10:02.811Z,49.24
2017-07-12T12:15:03.354Z,49.24
2017-07-12T12:20:02.687Z,49.33
2017-07-12T12:25:02.998Z,49.43
2017-07-12T12:30:03.439Z,49.43
2017-07-12T12:35:02.891Z,49.52
2017-07-12T12:40:03.419Z,49.62
2017-07-12T12:45:02.887Z,49.36
2017-07-12T12:50:03.355Z,49.74
2017-07-12T12:55:03.004Z,49.55
2017-07-12T13:00:03.478Z,49
2017-07-12T13:05:03.364Z,49.41
2017-07-12T13:10:02.828Z,50.56
2017-07-12T13:15:03.244Z,50.65
2017-07-12T13:20:02.752Z,51.1
2017-07-12T13:25:03.151Z,51.2
2017-07-12T13:30:02.808Z,51.75
2017-07-12T13:35:03.447Z,52.33
2017-07-12T13:40:02.760Z,52.26
2017-07-12T13:45:03.244Z,54.85
2017-07-12T13:50:04.527Z,54.75
2017-07-12T13:55:02.784Z,55.71
2017-07-12T14:00:03.393Z,55.87
2017-07-12T14:05:02.788Z,56.74
2017-07-12T14:10:03.533Z,57.21
2017-07-12T14:15:02.892Z,59.7
2017-07-12T14:20:03.340Z,68.76
2017-07-12T14:25:03.006Z,69.95
2017-07-12T14:30:03.675Z,70.87
2017-07-12T14:35:03.281Z,69.46
2017-07-12T14:40:02.781Z,75.71
2017-07-12T14:45:03.563Z,75.29
2017-07-12T14:50:03.282Z,70.99
2017-07-12T14:55:02.774Z,69.33
2017-07-12T15:00:03.469Z,68.24
2017-07-12T15:05:02.944Z,67.38
2017-07-12T15:10:03.477Z,66.42
2017-07-12T15:15:02.775Z,65.68
2017-07-12T15:20:03.277Z,66.77
2017-07-12T15:25:02.930Z,72.12
2017-07-12T15:30:03.575Z,75.29
2017-07-12T15:35:03.388Z,74.48
2017-07-12T15:40:02.753Z,74.39
2017-07-12T15:45:03.245Z,77.01
2017-07-12T15:50:02.941Z,79.6
2017-07-12T15:55:03.411Z,88.1
2017-07-12T16:00:02.888Z,87.95
2017-07-12T16:05:03.403Z,91.46
2017-07-12T16:10:02.938Z,92.19
2017-07-12T16:15:03.378Z,92.57
2017-07-12T16:20:02.895Z,93.01
2017-07-12T16:25:03.490Z,93.63
2017-07-12T16:30:02.772Z,93.24
2017-07-12T16:35:03.469Z,97.38
2017-07-12T16:40:03.019Z,97.38
2017-07-12T16:45:03.527Z,99.11
2017-07-12T16:50:02.965Z,98.53
2017-07-12T16:55:03.617Z,97.71
2017-07-12T17:00:02.911Z,97.52
2017-07-12T17:05:03.533Z,97.52
2017-07-12T17:10:02.901Z,99.99
2017-07-12T17:15:03.539Z,99.83
2017-07-12T17:20:02.994Z,99.99
2017-07-12T17:25:03.676Z,99.99
2017-07-12T17:30:03.280Z,99.99
2017-07-12T17:35:02.681Z,99.99
2017-07-12T17:40:03.404Z,99.99
2017-07-12T17:45:03.106Z,99.99
2017-07-12T17:50:02.809Z,99.99
2017-07-12T17:55:03.644Z,99.99
2017-07-12T18:00:03.218Z,99.99
2017-07-12T18:05:02.571Z,99.99
2017-07-12T18:10:03.393Z,99.99
2017-07-12T18:15:02.972Z,99.99
2017-07-12T18:20:03.469Z,99.82
2017-07-12T18:25:02.753Z,99.44
2017-07-12T18:30:03.357Z,99.54
2017-07-12T18:35:02.879Z,99.82
2017-07-12T18:40:03.619Z,99.96
2017-07-12T18:45:03.485Z,99.99
2017-07-12T18:50:02.832Z,99.99
2017-07-12T18:55:03.316Z,99.99
2017-07-12T19:00:03.067Z,99.99
2017-07-12T19:05:02.725Z,99.77
2017-07-12T19:10:03.222Z,99.05
2017-07-12T19:15:02.823Z,98.57
2017-07-12T19:20:03.434Z,98.28
2017-07-12T19:25:03.056Z,97.71
2017-07-12T19:30:03.516Z,96.42
2017-07-12T19:35:02.974Z,95.36
2017-07-12T19:40:03.611Z,94.65
2017-07-12T19:45:03.301Z,93.88
2017-07-12T19:50:02.765Z,92.92
2017-07-12T19:55:03.264Z,92.02
2017-07-12T20:00:02.710Z,91.92
2017-07-12T20:05:03.421Z,91.44
2017-07-12T20:10:02.810Z,90.96
2017-07-12T20:15:03.361Z,89.58
2017-07-12T20:20:02.826Z,89.2
2017-07-12T20:25:03.406Z,88.62
2017-07-12T20:30:02.725Z,88.24
2017-07-12T20:35:03.275Z,87.57
2017-07-12T20:40:02.808Z,87.15
2017-07-12T20:45:03.326Z,86.29
2017-07-12T20:50:02.895Z,86.1
2017-07-12T20:55:03.441Z,85.52
2017-07-12T21:00:03.386Z,84.05
2017-07-12T21:05:02.881Z,83.09
2017-07-12T21:10:03.565Z,82.23
2017-07-12T21:15:03.373Z,81.27
2017-07-12T21:20:02.671Z,79.99
2017-07-12T21:25:03.358Z,79.04
2017-07-12T21:30:03.165Z,78.09
2017-07-12T21:35:02.661Z,77.32
2017-07-12T21:40:03.056Z,76.14
2017-07-12T21:45:03.321Z,74.52
2017-07-12T21:50:02.741Z,74.04
2017-07-12T21:55:03.174Z,73.37
2017-07-12T22:00:02.956Z,72.89
2017-07-12T22:05:02.873Z,72.03
2017-07-12T22:10:02.826Z,71.66
2017-07-12T22:15:02.649Z,71.14
2017-07-12T22:20:03.559Z,70.67
2017-07-12T22:25:03.346Z,70.19
2017-07-12T22:30:03.224Z,69.71
2017-07-12T22:35:03.023Z,69.23
2017-07-12T22:40:02.965Z,68.85
2017-07-12T22:45:02.867Z,68.38
2017-07-12T22:50:02.775Z,67.61
2017-07-12T22:55:02.672Z,67.52
2017-07-12T23:00:03.814Z,66.66
2017-07-12T23:05:02.585Z,66.28
2017-07-12T23:10:03.576Z,65.96
2017-07-12T23:15:03.576Z,65.67
2017-07-12T23:20:03.478Z,65.23
2017-07-12T23:25:03.514Z,64.94
2017-07-12T23:30:03.430Z,64.65
2017-07-12T23:35:03.464Z,64.56
2017-07-12T23:40:03.536Z,64.37
2017-07-12T23:45:03.500Z,64.09
2017-07-12T23:50:03.408Z,63.99
2017-07-12T23:55:03.292Z,63.99
